Portada
METAR-TAF:

METAR-TAF

Aeropuertos :

Sevilla, España

Aeropuerto de Sevilla

latitud: 37-25N, longitud: 005-54W, altitud: 34 m

Observación

El informe se hizo hace 10 minutos, a las 09:30 UTC
Viento 5 kt del este-noreste
Temperatura 9°C
Humedad 81%
Presión 1032 hPa
Visibilidad 10 km o más
sin nubes por debajo de 1500 m y sin presencia de cumulonimbus.

METAR: LEZL 160930Z 06005KT CAVOK 09/06 Q1032 NOSIG

Hora: 10:40 (09:40 UTC)

Pronóstico

El informe se hizo hace 1 hora y 40 minutos, a las 08:00 UTC
Pronóstico válido del 16 a las 09 UTC al 17 a las 09 UTC
Viento 5 kt del noreste
Visibilidad 10 km o más
sin nubes por debajo de 1500 m y sin presencia de cumulonimbus.

TAF: LEZL 160800Z 1609/1709 05005KT CAVOK TX17/1615Z TN06/1706Z

Observaciones y pronósticos meteorológicos de más de 4000 aeropuertos (mensajes METAR y TAF).

Los puntos amarillos y rojos representan las estaciones disponibles.

Ponga el ratón en el punto deseado para ver el nombre de la estación.

Haga clic para ver las observaciones y los pronósticos meteorológicos.

Para cambiar el mapa : haga clic en los botones verdes con una cruz de color negro para hacer un zoom, en el botón verde con un guión para alejar o en las flechas verdes para mapas adyacentes.


METAR-TAF: